createdAt,value
2022-09-07T00:01:14.659Z,97644.66
2022-09-07T00:03:41.121Z,97643.34
2022-09-07T00:06:08.213Z,97649.81
2022-09-07T00:08:34.648Z,97657.38
2022-09-07T00:11:01.491Z,97664.63
2022-09-07T00:13:28.093Z,97657.13
2022-09-07T00:15:54.461Z,97663.09
2022-09-07T00:18:20.791Z,97666.06
2022-09-07T00:20:47.370Z,97675.22
2022-09-07T00:23:14.055Z,97676.59
2022-09-07T00:25:40.680Z,97674.41
2022-09-07T00:28:07.241Z,97681.16
2022-09-07T00:30:33.691Z,97681.16
2022-09-07T00:32:59.984Z,97686.03
2022-09-07T00:35:26.460Z,97683.91
2022-09-07T00:37:53.643Z,97689.56
2022-09-07T00:40:19.975Z,97691.75
2022-09-07T00:42:46.790Z,97698.19
2022-09-07T00:45:13.794Z,97702.78
2022-09-07T00:47:40.136Z,97696.59
2022-09-07T00:50:06.442Z,97692.31
2022-09-07T00:52:33.028Z,97693.66
2022-09-07T00:54:59.326Z,97698.50
2022-09-07T00:57:25.918Z,97690.72
2022-09-07T00:59:52.231Z,97698.28
2022-09-07T01:02:18.969Z,97697.75
2022-09-07T01:04:45.274Z,97691.84
2022-09-07T01:07:11.643Z,97697.50
2022-09-07T01:09:38.429Z,97692.13
2022-09-07T01:12:04.990Z,97695.09
2022-09-07T01:14:31.334Z,97688.91
2022-09-07T01:16:57.752Z,97683.81
2022-09-07T01:19:24.083Z,97681.41
2022-09-07T01:21:50.404Z,97682.50
2022-09-07T01:24:16.796Z,97671.22
2022-09-07T01:26:43.344Z,97668.81
2022-09-07T01:29:10.517Z,97669.91
2022-09-07T01:31:36.896Z,97662.13
2022-09-07T01:34:03.387Z,97665.09
2022-09-07T01:36:30.029Z,97655.44
2022-09-07T01:38:56.469Z,97647.63
2022-09-07T01:41:23.460Z,97645.19
2022-09-07T01:43:50.039Z,97650.84
2022-09-07T01:46:16.527Z,97647.63
2022-09-07T01:48:43.666Z,97650.59
2022-09-07T01:51:10.063Z,97650.06
2022-09-07T01:53:36.836Z,97654.97
2022-09-07T01:56:03.136Z,97644.75
2022-09-07T01:58:29.648Z,97645.84
2022-09-07T02:00:56.416Z,97642.63
2022-09-07T02:03:23.278Z,97634.84
2022-09-07T02:05:49.604Z,97638.59
2022-09-07T02:08:15.918Z,97635.41
2022-09-07T02:10:42.327Z,97638.88
2022-09-07T02:13:08.598Z,97631.91
2022-09-07T02:15:34.962Z,97632.19
2022-09-07T02:18:01.831Z,97627.09
2022-09-07T02:20:28.228Z,97632.72
2022-09-07T02:22:54.666Z,97623.38
2022-09-07T02:25:21.123Z,97631.44
2022-09-07T02:27:47.692Z,97635.22
2022-09-07T02:30:14.508Z,97632.00
2022-09-07T02:32:40.882Z,97626.09
2022-09-07T02:35:07.303Z,97632.81
2022-09-07T02:37:33.912Z,97634.97
2022-09-07T02:40:00.308Z,97627.19
2022-09-07T02:42:26.734Z,97620.22
2022-09-07T02:44:53.146Z,97623.97
2022-09-07T02:47:19.427Z,97622.66
2022-09-07T02:49:46.564Z,97624.53
2022-09-07T02:52:12.887Z,97624.81
2022-09-07T02:54:39.281Z,97627.78
2022-09-07T02:57:05.742Z,97628.84
2022-09-07T02:59:32.466Z,97627.25
2022-09-07T03:01:58.834Z,97625.91
2022-09-07T03:04:25.239Z,97628.63
2022-09-07T03:06:51.533Z,97651.47
2022-09-07T03:09:18.460Z,97717.81
2022-09-07T03:11:44.738Z,97733.13
2022-09-07T03:14:11.118Z,97736.91
2022-09-07T03:16:37.381Z,97733.13
2022-09-07T03:19:03.767Z,97746.84
2022-09-07T03:21:30.282Z,97738.00
2022-09-07T03:23:56.672Z,97746.84
2022-09-07T03:26:23.044Z,97735.31
2022-09-07T03:28:49.408Z,97736.91
2022-09-07T03:31:16.005Z,97739.88
2022-09-07T03:33:42.795Z,97734.50
2022-09-07T03:36:09.218Z,97724.84
2022-09-07T03:38:35.526Z,97718.66
2022-09-07T03:41:02.158Z,97715.97
2022-09-07T03:43:28.489Z,97711.66
2022-09-07T03:45:55.102Z,97704.69
2022-09-07T03:48:21.561Z,97711.94
2022-09-07T03:50:48.192Z,97708.47
2022-09-07T03:53:15.517Z,97709.25
2022-09-07T03:55:42.086Z,97696.09
2022-09-07T03:58:08.422Z,97693.41
2022-09-07T04:00:34.753Z,97705.25
2022-09-07T04:03:01.194Z,97698.25
2022-09-07T04:05:27.442Z,97699.06
2022-09-07T04:07:53.815Z,97690.47
2022-09-07T04:10:20.582Z,97672.78
2022-09-07T04:12:46.999Z,97673.84
2022-09-07T04:15:13.342Z,97677.63
2022-09-07T04:17:39.661Z,97667.94
2022-09-07T04:20:06.979Z,97663.66
2022-09-07T04:22:33.314Z,97665.53
2022-09-07T04:24:59.747Z,97662.28
2022-09-07T04:27:26.379Z,97654.22
2022-09-07T04:29:52.673Z,97655.31
2022-09-07T04:32:19.041Z,97646.72
2022-09-07T04:34:45.389Z,97638.13
2022-09-07T04:37:12.108Z,97630.38
2022-09-07T04:39:38.444Z,97633.31
2022-09-07T04:42:04.844Z,97619.09
2022-09-07T04:44:31.251Z,97614.00
2022-09-07T04:46:57.638Z,97609.19
2022-09-07T04:49:24.179Z,97611.88
2022-09-07T04:51:50.547Z,97609.19
2022-09-07T04:54:16.954Z,97602.22
2022-09-07T04:56:43.217Z,97595.25
2022-09-07T05:02:00.259Z,97601.69
2022-09-07T05:04:26.997Z,97610.81
2022-09-07T05:06:53.269Z,97620.78
2022-09-07T05:09:19.601Z,97630.97
2022-09-07T05:11:45.952Z,97623.22
2022-09-07T05:14:12.320Z,97618.91
2022-09-07T05:16:38.890Z,97616.50
2022-09-07T05:19:05.222Z,97613.00
2022-09-07T05:21:31.673Z,97610.31
2022-09-07T05:23:58.304Z,97601.47
2022-09-07T05:26:24.660Z,97602.53
2022-09-07T05:28:51.032Z,97610.59
2022-09-07T05:31:18.050Z,97616.25
2022-09-07T05:36:31.838Z,97599.59
2022-09-07T05:38:58.134Z,97609.53
2022-09-07T05:41:24.581Z,97601.75
2022-09-07T05:46:37.300Z,97638.56
2022-09-07T05:49:03.808Z,97596.66
2022-09-07T05:51:30.747Z,97594.78
2022-09-07T05:53:56.997Z,97597.44
2022-09-07T05:56:23.434Z,97599.28
2022-09-07T05:58:50.364Z,97596.63
2022-09-07T06:01:17.020Z,97608.09
2022-09-07T06:03:43.429Z,97602.69
2022-09-07T06:06:09.809Z,97601.63
2022-09-07T06:08:36.179Z,97603.50
2022-09-07T06:11:02.487Z,97597.34
2022-09-07T06:13:29.028Z,97608.06
2022-09-07T06:15:55.654Z,97607.00
2022-09-07T06:18:22.121Z,97622.03
2022-09-07T06:20:48.449Z,97623.94
2022-09-07T06:23:14.816Z,97614.50
2022-09-07T06:25:41.429Z,97619.88
2022-09-07T06:28:08.313Z,97626.59
2022-09-07T06:30:34.738Z,97618.00
2022-09-07T06:33:01.118Z,97620.66
2022-09-07T06:35:27.470Z,97623.84
2022-09-07T06:37:54.089Z,97636.91
2022-09-07T06:40:20.448Z,97642.22
2022-09-07T06:42:47.100Z,97654.22
2022-09-07T06:45:13.472Z,97653.34
2022-09-07T06:47:39.844Z,97651.41
2022-09-07T06:50:06.886Z,97652.97
2022-09-07T06:55:20.799Z,97674.84
2022-09-07T06:57:47.609Z,97677.72
2022-09-07T07:00:14.034Z,97685.97
2022-09-07T07:02:40.467Z,97680.00
2022-09-07T07:05:06.909Z,97683.94
2022-09-07T07:07:33.435Z,97686.03
2022-09-07T07:09:59.819Z,97682.75
2022-09-07T07:14:51.755Z,97682.63
2022-09-07T07:17:18.807Z,97698.47
2022-09-07T07:19:45.085Z,97699.69
2022-09-07T07:22:35.627Z,97707.41
2022-09-07T07:24:57.921Z,97711.63
2022-09-07T07:27:24.530Z,97709.75
2022-09-07T07:29:51.033Z,97720.97
2022-09-07T07:32:17.488Z,97735.84
2022-09-07T07:34:44.076Z,97737.28
2022-09-07T07:37:10.347Z,97749.41
2022-09-07T07:42:23.056Z,97745.41
2022-09-07T07:47:36.069Z,97765.47
2022-09-07T07:52:50.385Z,97790.81
2022-09-07T07:58:03.523Z,97796.38
2022-09-07T08:00:44.035Z,97810.81
2022-09-07T08:03:16.330Z,97826.06
2022-09-07T08:05:42.866Z,97820.69
2022-09-07T08:08:09.269Z,97829.84
2022-09-07T08:10:35.727Z,97845.88
2022-09-07T08:13:02.772Z,97844.06
2022-09-07T08:15:29.681Z,97853.03
2022-09-07T08:17:56.679Z,97856.56
2022-09-07T08:20:23.553Z,97861.16
2022-09-07T08:22:49.938Z,97872.13
2022-09-07T08:25:16.281Z,97872.81
2022-09-07T08:27:42.584Z,97868.06
2022-09-07T08:30:08.878Z,97867.91
2022-09-07T08:32:35.146Z,97862.28
2022-09-07T08:35:02.036Z,97866.28
2022-09-07T08:37:28.372Z,97866.28
2022-09-07T08:39:54.666Z,97864.66
2022-09-07T08:42:21.004Z,97850.38
2022-09-07T08:44:47.414Z,97841.06
2022-09-07T08:47:13.803Z,97834.81
2022-09-07T08:49:40.119Z,97831.47
2022-09-07T08:52:06.564Z,97820.88
2022-09-07T08:54:33.261Z,97809.06
2022-09-07T08:59:46.325Z,97784.78
2022-09-07T09:02:30.025Z,97768.03
2022-09-07T09:07:44.589Z,97727.34
2022-09-07T09:10:10.869Z,97717.78
2022-09-07T09:12:37.957Z,97703.78
2022-09-07T09:15:04.650Z,97684.47
2022-09-07T09:17:31.188Z,97661.47
2022-09-07T09:19:57.424Z,97640.19
2022-09-07T09:22:23.681Z,97647.53
2022-09-07T09:24:50.272Z,97641.28
2022-09-07T09:27:16.652Z,97647.94
2022-09-07T09:29:46.231Z,97650.47
2022-09-07T09:32:13.076Z,97647.00
2022-09-07T09:34:39.401Z,97642.34
2022-09-07T09:37:05.866Z,97652.88
2022-09-07T09:39:33.180Z,97651.78
2022-09-07T09:41:59.607Z,97650.31
2022-09-07T09:44:25.989Z,97655.13
2022-09-07T09:47:29.521Z,97654.03
2022-09-07T09:49:38.789Z,97651.00
2022-09-07T09:54:51.621Z,97653.09
2022-09-07T09:57:18.099Z,97655.50
2022-09-07T10:00:03.942Z,97647.38
2022-09-07T10:05:17.108Z,97638.28
2022-09-07T10:07:43.498Z,97646.56
2022-09-07T10:10:09.795Z,97645.94
2022-09-07T10:12:36.092Z,97644.84
2022-09-07T10:15:02.384Z,97638.78
2022-09-07T10:17:28.675Z,97640.34
2022-09-07T10:19:55.066Z,97637.31
2022-09-07T10:22:21.437Z,97641.66
2022-09-07T10:24:48.158Z,97634.59
2022-09-07T10:27:14.445Z,97620.28
2022-09-07T10:29:41.244Z,97626.19
2022-09-07T10:32:07.570Z,97641.81
2022-09-07T10:34:33.937Z,97628.75
2022-09-07T10:37:03.436Z,97630.31
2022-09-07T10:39:29.866Z,97629.22
2022-09-07T10:41:56.174Z,97642.63
2022-09-07T10:44:22.412Z,97614.19
2022-09-07T10:46:56.652Z,97607.97
2022-09-07T10:49:24.077Z,97617.88
2022-09-07T10:51:50.351Z,97615.66
2022-09-07T10:54:32.230Z,97614.06
2022-09-07T10:56:59.546Z,97615.50
2022-09-07T10:59:26.545Z,97604.81
2022-09-07T11:01:53.611Z,97609.59
2022-09-07T11:04:19.866Z,97608.13
2022-09-07T11:06:47.029Z,97614.84
2022-09-07T11:09:16.595Z,97611.34
2022-09-07T11:14:30.196Z,97585.19
2022-09-07T11:16:56.573Z,97584.53
2022-09-07T11:19:38.729Z,97584.69
2022-09-07T11:22:05.799Z,97580.56
2022-09-07T11:24:32.145Z,97583.75
2022-09-07T11:26:58.376Z,97587.72
2022-09-07T11:29:31.902Z,97588.19
2022-09-07T11:31:58.211Z,97589.00
2022-09-07T11:34:24.816Z,97583.09
2022-09-07T11:36:52.608Z,97572.56
2022-09-07T11:39:19.244Z,97557.41
2022-09-07T11:41:45.642Z,97555.00
2022-09-07T11:44:11.958Z,97552.78
2022-09-07T11:46:38.622Z,97534.59
2022-09-07T11:49:04.975Z,97551.81
2022-09-07T11:51:31.537Z,97548.31
2022-09-07T11:53:58.050Z,97542.88
2022-09-07T11:56:24.552Z,97541.75
2022-09-07T11:58:50.986Z,97538.38
2022-09-07T12:01:17.441Z,97538.38
2022-09-07T12:03:44.596Z,97536.97
2022-09-07T12:06:10.965Z,97540.97
2022-09-07T12:08:37.260Z,97540.97
2022-09-07T12:11:03.819Z,97530.91
2022-09-07T12:13:30.135Z,97533.97
2022-09-07T12:15:56.558Z,97524.50
2022-09-07T12:18:22.906Z,97522.91
2022-09-07T12:20:49.218Z,97518.91
2022-09-07T12:23:15.500Z,97511.91
2022-09-07T12:25:41.752Z,97511.91
2022-09-07T12:28:08.029Z,97513.97
2022-09-07T12:30:34.425Z,97516.09
2022-09-07T12:33:03.690Z,97514.31
2022-09-07T12:35:30.148Z,97504.75
2022-09-07T12:37:56.475Z,97508.69
2022-09-07T12:40:22.829Z,97498.66
2022-09-07T12:42:49.062Z,97499.47
2022-09-07T12:45:15.293Z,97496.75
2022-09-07T12:47:41.641Z,97488.13
2022-09-07T12:50:09.904Z,97480.47
2022-09-07T12:52:36.300Z,97483.19
2022-09-07T12:55:26.554Z,97477.94
2022-09-07T12:57:49.238Z,97477.28
2022-09-07T13:00:15.654Z,97479.84
2022-09-07T13:02:42.052Z,97483.19
2022-09-07T13:05:09.699Z,97491.97
2022-09-07T13:07:36.126Z,97492.28
2022-09-07T13:10:02.563Z,97483.66
2022-09-07T13:15:23.853Z,97494.84
2022-09-07T13:17:50.389Z,97509.53
2022-09-07T13:20:21.880Z,97516.06
2022-09-07T13:22:48.246Z,97503.63
2022-09-07T13:25:14.593Z,97497.56
2022-09-07T13:27:41.177Z,97507.47
2022-09-07T13:30:07.518Z,97506.22
2022-09-07T13:35:20.347Z,97499.50
2022-09-07T13:37:46.614Z,97504.75
2022-09-07T13:40:13.127Z,97493.75
2022-09-07T13:42:39.414Z,97500.00
2022-09-07T13:45:06.139Z,97496.19
2022-09-07T13:47:32.438Z,97491.03
2022-09-07T13:49:58.877Z,97491.03
2022-09-07T13:52:25.151Z,97495.38
2022-09-07T13:54:51.457Z,97491.84
2022-09-07T13:57:17.806Z,97477.34
2022-09-07T13:59:44.135Z,97475.75
2022-09-07T14:02:10.463Z,97473.38
2022-09-07T14:04:36.986Z,97477.66
2022-09-07T14:07:03.325Z,97475.28
2022-09-07T14:09:29.602Z,97468.28
2022-09-07T14:11:55.948Z,97470.97
2022-09-07T14:14:22.256Z,97468.88
2022-09-07T14:16:48.646Z,97464.44
2022-09-07T14:19:15.087Z,97466.19
2022-09-07T14:21:41.418Z,97462.97
2022-09-07T14:24:07.741Z,97462.81
2022-09-07T14:26:33.993Z,97475.91
2022-09-07T14:29:00.311Z,97472.72
2022-09-07T14:31:26.589Z,97477.66
2022-09-07T14:33:53.032Z,97469.03
2022-09-07T14:36:41.862Z,97475.91
2022-09-07T14:39:05.931Z,97470.63
2022-09-07T14:41:32.403Z,97466.66
2022-09-07T14:43:58.899Z,97475.72
2022-09-07T14:46:25.257Z,97460.09
2022-09-07T14:48:53.403Z,97463.44
2022-09-07T14:51:34.823Z,97463.78
2022-09-07T14:54:01.937Z,97480.03
2022-09-07T14:56:28.336Z,97493.09
2022-09-07T14:58:54.653Z,97501.84
2022-09-07T15:01:37.569Z,97495.94
2022-09-07T15:04:04.272Z,97493.25
2022-09-07T15:09:16.992Z,97482.91
2022-09-07T15:11:43.380Z,97473.47
2022-09-07T15:14:09.692Z,97480.34
2022-09-07T15:16:36.380Z,97475.53
2022-09-07T15:19:02.770Z,97480.78
2022-09-07T15:21:29.097Z,97475.69
2022-09-07T15:23:55.366Z,97475.19
2022-09-07T15:29:08.831Z,97471.56
2022-09-07T15:31:45.965Z,97470.88
2022-09-07T15:34:20.874Z,97464.78
2022-09-07T15:36:48.538Z,97460.34
2022-09-07T15:39:15.024Z,97452.03
2022-09-07T15:41:42.783Z,97453.78
2022-09-07T15:44:09.273Z,97454.41
2022-09-07T15:46:37.121Z,97444.19
2022-09-07T15:49:03.993Z,97448.66
2022-09-07T15:54:16.637Z,97445.78
2022-09-07T15:56:44.005Z,97433.34
2022-09-07T15:59:29.497Z,97454.06
2022-09-07T16:01:59.458Z,97454.53
2022-09-07T16:04:26.127Z,97456.63
2022-09-07T16:06:52.437Z,97450.59
2022-09-07T16:09:21.738Z,97457.56
2022-09-07T16:11:50.053Z,97449.16
2022-09-07T16:14:20.237Z,97454.25
2022-09-07T16:19:35.075Z,97447.72
2022-09-07T16:22:01.565Z,97460.16
2022-09-07T16:24:28.081Z,97465.59
2022-09-07T16:26:54.319Z,97470.19
2022-09-07T16:29:20.855Z,97472.09
2022-09-07T16:34:33.424Z,97483.25
2022-09-07T16:37:01.901Z,97474.31
2022-09-07T16:39:28.508Z,97472.72
2022-09-07T16:41:54.936Z,97470.03
2022-09-07T16:44:21.283Z,97464.59
2022-09-07T16:46:47.568Z,97461.09
2022-09-07T16:49:13.876Z,97471.13
2022-09-07T16:51:40.245Z,97470.66
2022-09-07T16:54:06.552Z,97465.25
2022-09-07T16:56:36.917Z,97466.34
2022-09-07T16:59:05.163Z,97459.34
2022-09-07T17:01:31.492Z,97457.72
2022-09-07T17:03:57.910Z,97459.94
2022-09-07T17:06:24.360Z,97458.38
2022-09-07T17:08:50.780Z,97455.97
2022-09-07T17:11:17.220Z,97467.13
2022-09-07T17:13:43.561Z,97460.41
2022-09-07T17:16:10.207Z,97451.81
2022-09-07T17:21:23.123Z,97443.06
2022-09-07T17:23:54.680Z,97442.56
2022-09-07T17:26:21.334Z,97445.88
2022-09-07T17:28:47.666Z,97452.41
2022-09-07T17:32:23.941Z,97453.03
2022-09-07T17:34:00.188Z,97460.66
2022-09-07T17:36:26.571Z,97467.50
2022-09-07T17:41:39.383Z,97481.13
2022-09-07T17:44:05.682Z,97494.97
2022-09-07T17:46:32.013Z,97483.66
2022-09-07T17:48:58.400Z,97488.56
2022-09-07T17:51:24.646Z,97490.81
2022-09-07T17:53:51.647Z,97490.31
2022-09-07T17:56:18.122Z,97494.94
2022-09-07T17:58:44.603Z,97490.16
2022-09-07T18:01:11.098Z,97496.66
2022-09-07T18:03:37.611Z,97500.78
2022-09-07T18:06:04.461Z,97494.88
2022-09-07T18:08:30.760Z,97493.28
2022-09-07T18:13:43.739Z,97487.69
2022-09-07T18:16:10.166Z,97479.09
2022-09-07T18:18:36.576Z,97479.38
2022-09-07T18:21:03.386Z,97494.34
2022-09-07T18:23:29.800Z,97490.34
2022-09-07T18:25:56.200Z,97498.75
2022-09-07T18:31:08.793Z,97499.69
2022-09-07T18:33:35.170Z,97487.59
2022-09-07T18:36:01.455Z,97491.72
2022-09-07T18:38:27.742Z,97487.22
2022-09-07T18:40:54.313Z,97489.56
2022-09-07T18:43:20.850Z,97493.50
2022-09-07T18:45:47.248Z,97493.41
2022-09-07T18:48:13.526Z,97493.53
2022-09-07T18:50:39.928Z,97494.75
2022-09-07T18:53:16.140Z,97495.94
2022-09-07T18:55:43.250Z,97493.38
2022-09-07T18:58:09.636Z,97493.78
2022-09-07T19:00:35.985Z,97497.44
2022-09-07T19:03:02.287Z,97500.25
2022-09-07T19:08:15.272Z,97499.56
2022-09-07T19:10:41.587Z,97494.72
2022-09-07T19:16:02.294Z,97508.16
2022-09-07T19:18:28.565Z,97498.53
2022-09-07T19:20:54.859Z,97502.13
2022-09-07T19:23:21.119Z,97497.34
2022-09-07T19:25:47.411Z,97494.44
2022-09-07T19:28:13.709Z,97489.66
2022-09-07T19:30:40.022Z,97493.25
2022-09-07T19:33:06.449Z,97497.38
2022-09-07T19:35:32.843Z,97509.34
2022-09-07T19:37:59.180Z,97505.66
2022-09-07T19:40:25.523Z,97501.16
2022-09-07T19:42:51.813Z,97495.88
2022-09-07T19:45:18.592Z,97506.44
2022-09-07T19:47:45.144Z,97506.56
2022-09-07T19:50:11.533Z,97510.44
2022-09-07T19:52:37.758Z,97512.16
2022-09-07T19:55:04.326Z,97504.34
2022-09-07T19:57:30.685Z,97499.22
2022-09-07T19:59:57.039Z,97507.59
2022-09-07T20:02:23.324Z,97500.63
2022-09-07T20:04:49.608Z,97505.81
2022-09-07T20:07:15.909Z,97498.81
2022-09-07T20:09:42.400Z,97494.00
2022-09-07T20:12:08.754Z,97503.00
2022-09-07T20:14:35.161Z,97486.72
2022-09-07T20:17:01.464Z,97483.59
2022-09-07T20:19:27.807Z,97484.00
2022-09-07T20:21:54.127Z,97485.97
2022-09-07T20:27:04.565Z,97481.53
2022-09-07T20:29:31.273Z,97484.31
2022-09-07T20:31:57.689Z,97476.84
2022-09-07T20:34:24.007Z,97477.44
2022-09-07T20:36:50.321Z,97476.13
2022-09-07T20:39:16.743Z,97466.69
2022-09-07T20:41:43.170Z,97466.47
2022-09-07T20:44:09.675Z,97461.66
2022-09-07T20:46:35.989Z,97469.53
2022-09-07T20:49:02.328Z,97465.56
2022-09-07T20:51:28.638Z,97461.03
2022-09-07T20:53:55.579Z,97458.94
2022-09-07T20:56:22.081Z,97453.84
2022-09-07T20:58:48.329Z,97448.25
2022-09-07T21:01:14.750Z,97455.81
2022-09-07T21:03:48.555Z,97456.72
2022-09-07T21:06:16.175Z,97464.34
2022-09-07T21:08:42.489Z,97453.63
2022-09-07T21:11:08.727Z,97453.72
2022-09-07T21:13:35.280Z,97452.72
2022-09-07T21:16:01.651Z,97451.69
2022-09-07T21:18:28.191Z,97451.47
2022-09-07T21:21:18.434Z,97448.84
2022-09-07T21:23:40.858Z,97454.78
2022-09-07T21:26:07.340Z,97459.66
2022-09-07T21:28:33.768Z,97457.25
2022-09-07T21:31:00.246Z,97451.38
2022-09-07T21:33:26.531Z,97457.59
2022-09-07T21:35:52.819Z,97459.00
2022-09-07T21:38:19.087Z,97456.09
2022-09-07T21:40:45.389Z,97457.44
2022-09-07T21:43:11.728Z,97451.56
2022-09-07T21:45:38.302Z,97452.94
2022-09-07T21:48:04.520Z,97456.22
2022-09-07T21:50:30.755Z,97449.81
2022-09-07T21:52:57.177Z,97451.97
2022-09-07T21:55:23.469Z,97454.97
2022-09-07T21:57:49.763Z,97451.75
2022-09-07T22:00:16.396Z,97455.03
2022-09-07T22:02:42.866Z,97454.81
2022-09-07T22:05:31.931Z,97458.06
2022-09-07T22:07:58.201Z,97451.94
2022-09-07T22:10:24.796Z,97449.31
2022-09-07T22:12:51.333Z,97440.22
2022-09-07T22:15:17.770Z,97434.91
2022-09-07T22:17:46.294Z,97437.06
2022-09-07T22:20:12.798Z,97433.88
2022-09-07T22:22:39.028Z,97438.72
2022-09-07T22:25:05.333Z,97431.22
2022-09-07T22:27:31.769Z,97432.84
2022-09-07T22:29:58.154Z,97424.28
2022-09-07T22:32:24.475Z,97422.16
2022-09-07T22:34:50.987Z,97422.75
2022-09-07T22:37:17.266Z,97423.31
2022-09-07T22:39:43.735Z,97417.44
2022-09-07T22:42:10.168Z,97421.19
2022-09-07T22:44:36.419Z,97415.88
2022-09-07T22:47:02.746Z,97417.53
2022-09-07T22:49:29.262Z,97416.50
2022-09-07T22:51:55.606Z,97407.91
2022-09-07T22:54:21.838Z,97416.28
2022-09-07T22:56:48.291Z,97419.25
2022-09-07T22:59:14.720Z,97408.78
2022-09-07T23:01:41.224Z,97400.50
2022-09-07T23:04:09.269Z,97405.34
2022-09-07T23:06:35.776Z,97407.00
2022-09-07T23:09:02.644Z,97407.84
2022-09-07T23:11:28.888Z,97410.31
2022-09-07T23:13:55.162Z,97409.25
2022-09-07T23:16:21.561Z,97409.81
2022-09-07T23:18:48.443Z,97403.41
2022-09-07T23:21:14.771Z,97401.28
2022-09-07T23:23:41.457Z,97407.19
2022-09-07T23:26:07.750Z,97398.63
2022-09-07T23:28:34.143Z,97401.56
2022-09-07T23:31:00.960Z,97398.66
2022-09-07T23:33:28.498Z,97401.34
2022-09-07T23:35:54.947Z,97390.88
2022-09-07T23:38:21.464Z,97394.66
2022-09-07T23:40:47.966Z,97387.97
2022-09-07T23:43:14.502Z,97388.25
2022-09-07T23:45:40.829Z,97387.47
2022-09-07T23:48:07.599Z,97379.41
2022-09-07T23:50:33.911Z,97376.97
2022-09-07T23:53:00.249Z,97373.53
2022-09-07T23:55:26.496Z,97374.88
2022-09-07T23:57:53.893Z,97369.25
